Cee Vee, Texas
Current Conditions -  °F | °C
As of 5:53 PM on Thursday 27 Nov 2014 (Local Time) from KCDS Reporting Station
Clear Clear  
Wind Chill: 50°   Ceiling: Unl
Heat Index: 50°   Visibility: 10mi
Dew Point: 27°   Wind: 9mph
Humidity: 41%   Direction: 170°S
Pressure: 30.3"   Gusts: NA
Location:  34.22°N, 100.45°W
Report Text: KCDS 272353Z AUTO 17008KT 10SM CLR 10/M03 A3030 RMK AO2 SLP266 T01001028 10139 20089 56016
Loading
Personal Weather Stations






























Interactive Weather Map New forecast layout! Learn more

10-Day Weather Forecast

Advertisements
Track Severe Weather on mobile